Georgia Highway — 7JCV — position and weather

sailwx.info

Track history (hours):
 
Tides and Currents Weather Stations Pressure Air Temp Water Temp Dewpoint Dewpoint Depression Visibility Wind Speed Wind Dir Waves Ship Positions

Georgia Highway

Last reported at 2015-Jul-29 22:33 UTC. Time now 2015-Aug-02 06:23 UTC.
Position N 34°54' E 141°04'.

Length 200 m; draft 8.9 m.

Type: Cargo ship. MMSI: 432629000.

Date/timePositionNaut miles runAvg speedWind from/ knotsBaromVisibWave heightAir tempDewpointWater temp
2015-Jul-29 22:33N 34°54' E 141°04'1918.5
2015-Jul-29 21:32N 34°53' E 140°41'1817.4
2015-Jul-29 20:31N 34°51' E 140°19'1718.0
2015-Jul-29 19:33N 34°50' E 139°58'1716.5
2015-Jul-29 18:33N 34°57' E 139°40'1515.4
2015-Jul-29 17:34N 35°11' E 139°46'1211.8
2015-Jul-29 16:34N 35°23' E 139°42'4 4.3
2015-Jul-29 15:31N 35°27' E 139°41'0 0.0
2015-Jul-29 14:31N 35°27' E 139°41'0 0.0
2015-Jul-29 13:31N 35°27' E 139°41'0 0.0
2015-Jul-29 12:31N 35°27' E 139°41'0 0.0
2015-Jul-29 11:31N 35°27' E 139°41'0 0.0
2015-Jul-29 10:31N 35°27' E 139°41'0 0.0
2015-Jul-29 09:31N 35°27' E 139°41'0 0.0
2015-Jul-29 08:31N 35°27' E 139°41'0 0.0
2015-Jul-29 07:31N 35°27' E 139°41'0 0.0
2015-Jul-29 06:31N 35°27' E 139°41'0 0.0
2015-Jul-29 05:31N 35°27' E 139°41'0 0.0
2015-Jul-29 04:31N 35°27' E 139°41'0 0.0
2015-Jul-29 03:31N 35°27' E 139°41'0 0.1
2015-Jul-29 02:34N 35°27' E 139°41'9 8.7
2015-Jul-29 01:34N 35°19' E 139°44'1111.0
2015-Jul-29 00:34N 35°08' E 139°46'1413.9
2015-Jul-28 23:33N 34°58' E 139°35'1817.0
2015-Jul-28 22:29N 34°46' E 139°17'21814.6
2015-Jul-28 07:33N 34°02' E 134°58'1313.0
2015-Jul-28 06:32N 34°16' E 134°58'1515.5
2015-Jul-28 05:33N 34°30' E 135°05'9 9.0
2015-Jul-28 04:33N 34°37' E 134°58'8 7.6
2015-Jul-28 03:28N 34°43' E 134°51'0 0.0
2015-Jul-28 02:19N 34°43' E 134°51'0 0.0
2015-Jul-28 00:07N 34°43' E 134°51'0 0.0
2015-Jul-27 23:31N 34°43' E 134°51'0 0.0
2015-Jul-27 22:31N 34°43' E 134°51'2 1.5
2015-Jul-27 21:31N 34°41' E 134°50'9 9.4
2015-Jul-27 20:33N 34°34' E 134°44'1413.6
2015-Jul-27 19:33N 34°38' E 134°60'9 8.8
2015-Jul-27 18:33N 34°32' E 135°08'1413.7
2015-Jul-27 17:33N 34°20' E 135°01'1111.4
2015-Jul-27 16:34N 34°08' E 135°00'9 8.9
2015-Jul-27 15:33N 33°60' E 134°59'  
2015-Jul-23 16:34N 34°05' E 134°57'1312.1
2015-Jul-23 15:31N 34°18' E 134°59'1515.9
2015-Jul-23 14:33N 34°32' E 135°06'9 8.7
2015-Jul-23 13:33N 34°37' E 134°57'3 0.1
2015-Jul-22 16:33N 34°35' E 134°54'1111.0
2015-Jul-22 15:33N 34°34' E 135°07'2 2.0
2015-Jul-22 14:29N 34°34' E 135°09'0 0.1
2015-Jul-22 13:29N 34°34' E 135°09'0 0.0
2015-Jul-22 12:17N 34°34' E 135°09'0 0.1
2015-Jul-22 11:29N 34°34' E 135°09'0 0.0
2015-Jul-22 10:23N 34°34' E 135°09'0 0.0
2015-Jul-22 09:29N 34°34' E 135°09'0 0.1
2015-Jul-22 08:29N 34°34' E 135°09'0 0.0
2015-Jul-22 07:23N 34°34' E 135°09'0 0.1
2015-Jul-22 06:29N 34°34' E 135°09'0 0.1
2015-Jul-22 05:29N 34°34' E 135°09'0 0.1
2015-Jul-22 04:29N 34°34' E 135°09'0 0.1
2015-Jul-22 03:29N 34°34' E 135°09'0 0.0
2015-Jul-22 02:29N 34°34' E 135°09'0 0.0
2015-Jul-22 01:29N 34°33' E 135°09'0 0.0
2015-Jul-22 00:33N 34°34' E 135°09'1514.8
2015-Jul-21 23:33N 34°20' E 135°00'1212.1
2015-Jul-21 22:33N 34°08' E 134°59'1414.1
2015-Jul-21 21:32N 33°54' E 134°59'170 5.1
2015-Jul-20 12:12N 34°27' E 138°20'3810.2
2015-Jul-20 08:32N 34°32' E 139°05'1510.0
2015-Jul-20 07:03N 34°36' E 139°23'610.0
2015-Jul-20 06:27N 34°36' E 139°30'9 9.3
2015-Jul-20 05:30N 34°37' E 139°41'9 8.8
2015-Jul-20 04:31N 34°38' E 139°51'9 9.8
2015-Jul-20 03:33N 34°43' E 140°01'10 9.7
2015-Jul-20 02:33N 34°47' E 140°12'1010.1
2015-Jul-20 01:33N 34°50' E 140°24'22 9.8
2015-Jul-19 23:20N 34°59' E 140°48'  
Track history (hours):
 
Tides and Currents Weather Stations Pressure Air Temp Water Temp Dewpoint Dewpoint Depression Visibility Wind Speed Wind Dir Waves Ship Positions

Georgia Highway

Last reported at 2015-Jul-29 22:33 UTC. Time now 2015-Aug-02 06:23 UTC.
Position N 34°54' E 141°04'.

Length 200 m; draft 8.9 m.

Type: Cargo ship. MMSI: 432629000.

Date/timePositionNaut miles runAvg speedWind from/ knotsBaromVisibWave heightAir tempDewpointWater temp
2015-Jul-29 22:33N 34°54' E 141°04'1918.5
2015-Jul-29 21:32N 34°53' E 140°41'1817.4
2015-Jul-29 20:31N 34°51' E 140°19'1718.0
2015-Jul-29 19:33N 34°50' E 139°58'1716.5
2015-Jul-29 18:33N 34°57' E 139°40'1515.4
2015-Jul-29 17:34N 35°11' E 139°46'1211.8
2015-Jul-29 16:34N 35°23' E 139°42'4 4.3
2015-Jul-29 15:31N 35°27' E 139°41'0 0.0
2015-Jul-29 14:31N 35°27' E 139°41'0 0.0
2015-Jul-29 13:31N 35°27' E 139°41'0 0.0
2015-Jul-29 12:31N 35°27' E 139°41'0 0.0
2015-Jul-29 11:31N 35°27' E 139°41'0 0.0
2015-Jul-29 10:31N 35°27' E 139°41'0 0.0
2015-Jul-29 09:31N 35°27' E 139°41'0 0.0
2015-Jul-29 08:31N 35°27' E 139°41'0 0.0
2015-Jul-29 07:31N 35°27' E 139°41'0 0.0
2015-Jul-29 06:31N 35°27' E 139°41'0 0.0
2015-Jul-29 05:31N 35°27' E 139°41'0 0.0
2015-Jul-29 04:31N 35°27' E 139°41'0 0.0
2015-Jul-29 03:31N 35°27' E 139°41'0 0.1
2015-Jul-29 02:34N 35°27' E 139°41'9 8.7
2015-Jul-29 01:34N 35°19' E 139°44'1111.0
2015-Jul-29 00:34N 35°08' E 139°46'1413.9
2015-Jul-28 23:33N 34°58' E 139°35'1817.0
2015-Jul-28 22:29N 34°46' E 139°17'21814.6
2015-Jul-28 07:33N 34°02' E 134°58'1313.0
2015-Jul-28 06:32N 34°16' E 134°58'1515.5
2015-Jul-28 05:33N 34°30' E 135°05'9 9.0
2015-Jul-28 04:33N 34°37' E 134°58'8 7.6
2015-Jul-28 03:28N 34°43' E 134°51'0 0.0
2015-Jul-28 02:19N 34°43' E 134°51'0 0.0
2015-Jul-28 00:07N 34°43' E 134°51'0 0.0
2015-Jul-27 23:31N 34°43' E 134°51'0 0.0
2015-Jul-27 22:31N 34°43' E 134°51'2 1.5
2015-Jul-27 21:31N 34°41' E 134°50'9 9.4
2015-Jul-27 20:33N 34°34' E 134°44'1413.6
2015-Jul-27 19:33N 34°38' E 134°60'9 8.8
2015-Jul-27 18:33N 34°32' E 135°08'1413.7
2015-Jul-27 17:33N 34°20' E 135°01'1111.4
2015-Jul-27 16:34N 34°08' E 135°00'9 8.9
2015-Jul-27 15:33N 33°60' E 134°59'  
2015-Jul-23 16:34N 34°05' E 134°57'1312.1
2015-Jul-23 15:31N 34°18' E 134°59'1515.9
2015-Jul-23 14:33N 34°32' E 135°06'9 8.7
2015-Jul-23 13:33N 34°37' E 134°57'3 0.1
2015-Jul-22 16:33N 34°35' E 134°54'1111.0
2015-Jul-22 15:33N 34°34' E 135°07'2 2.0
2015-Jul-22 14:29N 34°34' E 135°09'0 0.1
2015-Jul-22 13:29N 34°34' E 135°09'0 0.0
2015-Jul-22 12:17N 34°34' E 135°09'0 0.1
2015-Jul-22 11:29N 34°34' E 135°09'0 0.0
2015-Jul-22 10:23N 34°34' E 135°09'0 0.0
2015-Jul-22 09:29N 34°34' E 135°09'0 0.1
2015-Jul-22 08:29N 34°34' E 135°09'0 0.0
2015-Jul-22 07:23N 34°34' E 135°09'0 0.1
2015-Jul-22 06:29N 34°34' E 135°09'0 0.1
2015-Jul-22 05:29N 34°34' E 135°09'0 0.1
2015-Jul-22 04:29N 34°34' E 135°09'0 0.1
2015-Jul-22 03:29N 34°34' E 135°09'0 0.0
2015-Jul-22 02:29N 34°34' E 135°09'0 0.0
2015-Jul-22 01:29N 34°33' E 135°09'0 0.0
2015-Jul-22 00:33N 34°34' E 135°09'1514.8
2015-Jul-21 23:33N 34°20' E 135°00'1212.1
2015-Jul-21 22:33N 34°08' E 134°59'1414.1
2015-Jul-21 21:32N 33°54' E 134°59'170 5.1
2015-Jul-20 12:12N 34°27' E 138°20'3810.2
2015-Jul-20 08:32N 34°32' E 139°05'1510.0
2015-Jul-20 07:03N 34°36' E 139°23'610.0
2015-Jul-20 06:27N 34°36' E 139°30'9 9.3
2015-Jul-20 05:30N 34°37' E 139°41'9 8.8
2015-Jul-20 04:31N 34°38' E 139°51'9 9.8
2015-Jul-20 03:33N 34°43' E 140°01'10 9.7
2015-Jul-20 02:33N 34°47' E 140°12'1010.1
2015-Jul-20 01:33N 34°50' E 140°24'22 9.8
2015-Jul-19 23:20N 34°59' E 140°48'  

Dump ship's entire track history